Terminal Aerodrome Forecast
Issued by NWS

Home | Current Version | Previous Version | Text Only | Print | Product List | Glossary On
Versions: 1 2 3 4 5 6 7 8 9 10 11 12 13 14 15 16 17 18 19 20 21 22 23 24 25 26 27
000
FTUS43 KABR 291700
TAFATY
TAF
KATY 291720Z 2918/3018 32027G37KT P6SM FEW026
     FM292100 33025G34KT P6SM SKC
     FM300000 32015KT P6SM SKC
     FM300300 23004KT P6SM SCT250=

USA.gov is the U.S. government's official web portal to all federal, state and local government web resources and services.